Time;durP1;ratioP1;P1;durP2;ratioP2;P2;SDS_P1;SDS_P2;PMS_P1;PMS_P2;Temp;Humidity;BMP_temperature;BMP_pressure;BME280_temperature;BME280_humidity;BME280_pressure;Samples;Min_cycle;Max_cycle;Signal;HPM_P1;HPM_P2
2023/01/01 00:02:22;;;;;;;106.53;95.07;;;15.10;99.90;;;;;;4997589;28;93019;-80
2023/01/01 00:04:49;;;;;;;95.93;87.43;;;15.10;99.90;;;;;;5015197;28;92399;-79
2023/01/01 00:07:16;;;;;;;39.28;35.50;;;15.10;99.90;;;;;;5015657;28;92440;-79
2023/01/01 00:12:31;;;;;;;27.58;17.23;;;15.10;99.90;;;;;;4997343;28;95815;-80
2023/01/01 00:14:58;;;;;;;29.70;26.20;;;15.00;99.90;;;;;;5015482;28;92336;-80
2023/01/01 00:17:28;;;;;;;45.88;41.20;;;15.00;99.90;;;;;;5015267;28;92468;-80
2023/01/01 00:19:55;;;;;;;74.25;66.97;;;15.00;99.90;;;;;;4995623;28;98154;-79
2023/01/01 00:22:22;;;;;;;52.30;46.80;;;15.00;99.90;;;;;;4996942;28;98127;-79
2023/01/01 00:25:13;;;;;;;42.65;36.72;;;15.00;99.90;;;;;;4970009;28;92992;-80
2023/01/01 00:27:41;;;;;;;29.33;25.33;;;15.00;99.90;;;;;;4996644;28;93129;-79
2023/01/01 00:30:09;;;;;;;29.33;21.77;;;15.00;99.90;;;;;;5014450;28;93637;-80
2023/01/01 00:32:36;;;;;;;24.83;18.13;;;15.00;99.90;;;;;;4980441;28;95615;-79
2023/01/01 00:35:04;;;;;;;25.75;19.25;;;15.00;99.90;;;;;;4997263;28;92521;-79
2023/01/01 00:37:31;;;;;;;23.73;16.35;;;15.00;99.90;;;;;;5015265;28;91695;-79
2023/01/01 00:39:58;;;;;;;21.70;15.85;;;14.90;99.90;;;;;;4996933;28;93304;-80
2023/01/01 00:42:25;;;;;;;22.83;14.10;;;14.90;99.90;;;;;;5014799;28;92386;-80
2023/01/01 00:44:52;;;;;;;25.60;16.40;;;14.90;99.90;;;;;;4995840;28;94845;-79
2023/01/01 00:47:19;;;;;;;22.80;14.75;;;14.80;99.90;;;;;;4996983;28;92505;-79
2023/01/01 00:49:46;;;;;;;18.90;14.85;;;14.80;99.90;;;;;;4996759;28;94382;-80
2023/01/01 00:52:14;;;;;;;17.38;13.43;;;14.80;99.90;;;;;;5014956;28;92849;-79
2023/01/01 00:54:41;;;;;;;24.67;15.80;;;14.70;99.90;;;;;;4996890;28;92508;-79
2023/01/01 00:57:08;;;;;;;23.60;13.50;;;14.70;99.90;;;;;;4964138;28;92584;-79
2023/01/01 00:59:35;;;;;;;27.35;24.42;;;14.70;99.90;;;;;;4997024;28;93409;-80
2023/01/01 01:02:02;;;;;;;22.88;18.13;;;14.70;99.90;;;;;;4997276;28;92056;-79
2023/01/01 01:04:29;;;;;;;118.10;100.22;;;14.70;99.90;;;;;;5014755;28;92369;-79
2023/01/01 01:06:56;;;;;;;206.65;141.32;;;14.70;99.90;;;;;;4979363;28;92542;-79
2023/01/01 01:09:24;;;;;;;122.25;90.60;;;14.70;99.90;;;;;;4994945;28;95836;-79
2023/01/01 01:11:51;;;;;;;29.17;23.00;;;14.70;99.90;;;;;;4995843;28;98364;-79
2023/01/01 01:14:18;;;;;;;25.60;16.02;;;14.70;99.90;;;;;;4980670;28;92367;-80
2023/01/01 01:17:08;;;;;;;21.98;15.77;;;14.70;99.90;;;;;;4997077;28;92980;-80
2023/01/01 01:19:36;;;;;;;22.30;17.90;;;14.80;99.90;;;;;;4984349;28;96030;-79
2023/01/01 01:22:05;;;;;;;21.27;14.40;;;14.80;99.90;;;;;;4963630;28;96957;-79
2023/01/01 01:24:32;;;;;;;18.50;13.15;;;14.80;99.90;;;;;;4996540;28;92924;-79
2023/01/01 01:26:59;;;;;;;20.20;14.13;;;14.80;99.90;;;;;;4996903;28;91711;-79
2023/01/01 01:29:26;;;;;;;23.65;15.93;;;14.80;99.90;;;;;;4996321;28;96226;-79
2023/01/01 01:31:53;;;;;;;26.70;19.23;;;14.80;99.90;;;;;;5014185;28;92398;-79
2023/01/01 01:34:20;;;;;;;21.50;15.48;;;14.80;99.90;;;;;;4995509;28;95253;-79
2023/01/01 01:36:53;;;;;;;23.35;16.60;;;14.80;99.90;;;;;;4980751;28;92508;-80
2023/01/01 01:39:21;;;;;;;23.83;14.77;;;14.80;99.90;;;;;;4998857;28;93459;-79
2023/01/01 01:41:48;;;;;;;20.23;13.38;;;14.80;99.90;;;;;;4999956;28;94672;-79
2023/01/01 01:44:49;;;;;;;22.55;14.68;;;14.80;99.90;;;;;;5017722;28;92402;-79
2023/01/01 01:47:37;;;;;;;24.83;14.23;;;14.90;99.90;;;;;;4999384;28;92385;-79
2023/01/01 01:50:07;;;;;;;23.15;16.42;;;14.80;99.90;;;;;;4999249;28;96327;-79
2023/01/01 01:52:40;;;;;;;22.92;15.10;;;14.70;99.90;;;;;;4983833;28;94738;-79
2023/01/01 01:55:08;;;;;;;23.50;15.38;;;14.80;99.90;;;;;;4999599;28;93215;-79
2023/01/01 01:57:38;;;;;;;22.88;13.27;;;14.80;99.90;;;;;;5017179;28;97176;-79
2023/01/01 02:00:06;;;;;;;22.95;14.10;;;14.80;99.90;;;;;;4997874;28;98240;-79
2023/01/01 02:02:54;;;;;;;20.00;14.38;;;14.80;99.90;;;;;;4999038;28;98650;-79
2023/01/01 02:05:22;;;;;;;23.25;14.02;;;14.80;99.90;;;;;;5017271;28;92533;-79
2023/01/01 02:07:51;;;;;;;21.27;15.27;;;14.80;99.90;;;;;;4999272;28;92542;-79
2023/01/01 02:10:21;;;;;;;23.00;13.82;;;14.80;99.90;;;;;;4983212;28;96388;-79
2023/01/01 02:12:48;;;;;;;22.23;14.80;;;14.80;99.90;;;;;;4998473;28;95571;-79
2023/01/01 02:15:16;;;;;;;21.85;14.93;;;14.80;99.90;;;;;;4999193;28;92442;-80
2023/01/01 02:17:46;;;;;;;22.65;15.57;;;14.70;99.90;;;;;;4999952;28;91899;-79
2023/01/01 02:20:40;;;;;;;24.35;15.02;;;14.70;99.90;;;;;;5016744;28;94739;-79
2023/01/01 02:23:28;;;;;;;19.92;14.30;;;14.70;99.90;;;;;;5017030;28;93017;-79
2023/01/01 02:25:55;;;;;;;26.23;15.68;;;14.70;99.90;;;;;;4981309;28;94925;-79
2023/01/01 02:29:10;;;;;;;20.20;15.63;;;14.70;99.90;;;;;;4998799;28;92598;-79
2023/01/01 02:31:44;;;;;;;23.15;15.35;;;14.80;99.90;;;;;;4998980;28;95937;-79
2023/01/01 02:34:16;;;;;;;21.90;15.60;;;14.70;99.90;;;;;;5016738;28;93005;-79
2023/01/01 02:36:51;;;;;;;25.70;15.95;;;14.70;99.90;;;;;;5016959;28;92362;-80
2023/01/01 02:39:21;;;;;;;22.23;15.88;;;14.70;99.90;;;;;;5016803;28;93253;-79
2023/01/01 02:41:53;;;;;;;20.13;14.82;;;14.70;99.90;;;;;;4981738;28;95253;-79
2023/01/01 02:44:23;;;;;;;20.77;15.95;;;14.70;99.90;;;;;;5017044;28;93010;-79
2023/01/01 02:46:51;;;;;;;23.85;16.33;;;14.70;99.90;;;;;;4999257;28;92448;-80
2023/01/01 02:49:18;;;;;;;24.17;15.45;;;14.60;99.90;;;;;;4997878;28;92499;-80
2023/01/01 02:51:57;;;;;;;23.50;16.05;;;14.70;99.90;;;;;;4980104;28;98552;-79
2023/01/01 02:54:32;;;;;;;23.42;14.98;;;14.60;99.90;;;;;;5016622;28;95238;-79
2023/01/01 02:57:05;;;;;;;19.90;14.50;;;14.60;99.90;;;;;;4982245;28;92470;-80
2023/01/01 03:00:23;;;;;;;19.58;13.70;;;14.60;99.90;;;;;;4998430;28;92566;-79
2023/01/01 03:03:25;;;;;;;19.45;12.82;;;14.60;99.90;;;;;;4981842;28;95851;-80
2023/01/01 03:06:23;;;;;;;18.27;12.57;;;14.60;99.90;;;;;;5016575;28;93391;-79
2023/01/01 03:09:11;;;;;;;22.35;13.93;;;14.60;99.90;;;;;;4998494;28;92958;-79
2023/01/01 03:11:44;;;;;;;19.15;12.68;;;14.60;99.90;;;;;;4998731;28;91967;-79
2023/01/01 03:14:41;;;;;;;21.50;12.13;;;14.60;99.90;;;;;;4998351;28;93238;-79
2023/01/01 03:17:28;;;;;;;18.88;11.93;;;14.60;99.90;;;;;;4998177;28;95482;-80
2023/01/01 03:19:58;;;;;;;16.35;11.27;;;14.60;99.90;;;;;;4997062;28;94885;-79
2023/01/01 03:22:30;;;;;;;16.75;11.18;;;14.60;99.90;;;;;;5016084;28;92679;-80
2023/01/01 03:25:08;;;;;;;15.88;10.15;;;14.50;99.90;;;;;;4997900;28;95689;-79
2023/01/01 03:27:59;;;;;;;18.45;9.95;;;14.60;99.90;;;;;;4998205;28;92456;-79
2023/01/01 03:30:28;;;;;;;18.38;10.02;;;14.60;99.90;;;;;;4998849;28;93207;-79
2023/01/01 03:33:04;;;;;;;16.60;9.07;;;14.60;99.90;;;;;;4981644;28;92504;-79
2023/01/01 03:35:36;;;;;;;16.73;8.40;;;14.70;99.90;;;;;;5016356;28;94049;-79
2023/01/01 03:38:07;;;;;;;11.73;7.15;;;14.70;99.90;;;;;;4999235;28;93268;-79
2023/01/01 03:40:37;;;;;;;13.70;7.15;;;14.70;99.90;;;;;;4998467;28;92538;-79
2023/01/01 03:43:15;;;;;;;14.15;6.85;;;14.80;99.90;;;;;;5016317;28;94537;-79
2023/01/01 03:45:46;;;;;;;13.85;5.90;;;14.80;99.90;;;;;;4997532;28;95659;-79
2023/01/01 03:48:13;;;;;;;12.40;6.20;;;14.80;99.90;;;;;;4997926;28;97154;-79
2023/01/01 03:50:59;;;;;;;11.55;5.50;;;14.80;99.90;;;;;;4998596;28;92479;-79
2023/01/01 03:53:38;;;;;;;12.93;5.10;;;14.90;99.90;;;;;;4997974;28;92355;-79
2023/01/01 03:56:36;;;;;;;7.18;4.60;;;15.00;99.90;;;;;;5016296;28;93635;-79
2023/01/01 03:59:23;;;;;;;10.13;4.20;;;15.00;99.90;;;;;;5016234;28;93124;-79
2023/01/01 04:01:57;;;;;;;10.10;4.60;;;15.00;99.90;;;;;;4997899;28;92656;-79
2023/01/01 04:04:25;;;;;;;8.77;3.63;;;15.10;99.90;;;;;;4982544;28;91747;-79
2023/01/01 04:06:54;;;;;;;6.72;3.28;;;15.00;99.90;;;;;;5015984;28;93322;-79
2023/01/01 04:09:27;;;;;;;9.40;4.15;;;15.10;99.90;;;;;;5015816;28;93001;-80
2023/01/01 04:12:05;;;;;;;6.65;3.08;;;15.10;99.90;;;;;;4997398;28;94906;-78
2023/01/01 04:14:40;;;;;;;7.60;3.65;;;15.10;99.90;;;;;;5016150;28;92589;-80
2023/01/01 04:17:09;;;;;;;10.75;4.03;;;15.20;99.90;;;;;;4998444;28;93594;-79
2023/01/01 04:19:36;;;;;;;7.95;3.28;;;15.20;99.90;;;;;;5015538;28;93109;-79
2023/01/01 04:22:04;;;;;;;5.43;3.42;;;15.10;99.90;;;;;;4997974;28;92408;-79
2023/01/01 04:24:31;;;;;;;10.27;3.03;;;15.20;99.90;;;;;;4997982;28;92477;-80
2023/01/01 04:26:58;;;;;;;10.25;3.58;;;15.20;99.90;;;;;;4997869;28;93197;-79
2023/01/01 04:29:25;;;;;;;8.20;3.45;;;15.20;99.90;;;;;;4997840;28;95788;-79
2023/01/01 04:31:52;;;;;;;9.00;3.10;;;15.20;99.90;;;;;;4997768;28;92528;-79
2023/01/01 04:34:19;;;;;;;6.38;2.95;;;15.20;99.90;;;;;;4997777;28;93016;-79
2023/01/01 04:36:47;;;;;;;8.52;3.40;;;15.20;99.90;;;;;;4996522;28;96085;-79
2023/01/01 04:39:14;;;;;;;6.68;2.70;;;15.20;99.90;;;;;;4980971;28;98089;-79
2023/01/01 04:41:41;;;;;;;8.35;2.80;;;15.30;99.90;;;;;;4981136;28;92364;-79
2023/01/01 04:44:08;;;;;;;6.60;2.72;;;15.30;99.90;;;;;;4997931;28;92408;-79
2023/01/01 04:46:38;;;;;;;5.00;2.80;;;15.30;99.90;;;;;;4980680;28;98510;-79
2023/01/01 04:49:05;;;;;;;6.30;2.67;;;15.30;99.90;;;;;;5015353;28;93154;-80
2023/01/01 04:51:32;;;;;;;7.10;2.60;;;15.30;99.90;;;;;;4997893;28;93505;-79
2023/01/01 04:54:01;;;;;;;7.63;2.83;;;15.30;99.90;;;;;;4981532;28;91857;-79
2023/01/01 04:56:28;;;;;;;4.70;2.85;;;15.20;99.90;;;;;;5014829;28;93243;-79
2023/01/01 04:58:57;;;;;;;7.30;2.42;;;15.20;99.90;;;;;;4980916;28;95779;-79
2023/01/01 05:01:27;;;;;;;6.72;3.10;;;15.10;99.90;;;;;;4979474;28;94840;-79
2023/01/01 05:03:54;;;;;;;6.80;2.70;;;15.10;99.90;;;;;;5015357;28;92531;-79
2023/01/01 05:06:22;;;;;;;6.03;2.50;;;15.00;99.90;;;;;;5002054;28;95908;-79
2023/01/01 05:08:53;;;;;;;7.03;2.63;;;15.00;99.90;;;;;;5009092;28;95608;-79
2023/01/01 05:11:25;;;;;;;8.30;3.20;;;15.00;99.90;;;;;;5000530;28;92380;-79
2023/01/01 05:13:55;;;;;;;10.05;2.70;;;15.00;99.90;;;;;;5036984;27;92475;-79
2023/01/01 05:16:24;;;;;;;7.25;2.60;;;14.90;99.90;;;;;;5038498;28;93529;-79
2023/01/01 05:18:52;;;;;;;5.40;2.53;;;14.90;99.90;;;;;;5004438;28;94930;-79
2023/01/01 05:21:22;;;;;;;7.25;3.05;;;14.90;99.90;;;;;;5004137;28;93132;-79
2023/01/01 05:23:54;;;;;;;4.28;2.63;;;14.90;99.90;;;;;;5020368;28;92519;-79
2023/01/01 05:26:24;;;;;;;8.48;2.50;;;14.90;99.90;;;;;;5037902;28;95916;-79
2023/01/01 05:28:51;;;;;;;7.13;2.28;;;14.90;99.90;;;;;;5038373;28;95426;-79
2023/01/01 05:31:21;;;;;;;6.50;2.17;;;14.90;99.90;;;;;;5020490;28;92559;-79
2023/01/01 05:33:49;;;;;;;6.35;2.15;;;14.90;99.90;;;;;;5020389;28;92428;-79
2023/01/01 05:36:20;;;;;;;9.52;2.33;;;14.80;99.90;;;;;;5020498;28;93628;-80
2023/01/01 05:38:48;;;;;;;5.00;2.00;;;14.80;99.90;;;;;;5020348;28;93487;-79
2023/01/01 05:41:16;;;;;;;5.25;2.03;;;14.80;99.90;;;;;;5038725;28;92494;-79
2023/01/01 05:43:44;;;;;;;7.22;2.45;;;14.80;99.90;;;;;;5039016;28;92608;-80
2023/01/01 05:46:15;;;;;;;5.10;1.90;;;14.80;99.90;;;;;;5020374;28;93449;-80
2023/01/01 05:48:42;;;;;;;5.03;2.00;;;14.80;99.90;;;;;;5019791;28;95805;-80
2023/01/01 05:51:15;;;;;;;5.85;2.08;;;14.80;99.90;;;;;;5037129;28;94833;-80
2023/01/01 05:53:43;;;;;;;7.03;2.25;;;14.80;99.90;;;;;;5020441;28;92544;-79
2023/01/01 05:56:11;;;;;;;6.15;1.70;;;14.80;99.90;;;;;;5019901;28;95913;-79
2023/01/01 05:58:38;;;;;;;3.30;1.55;;;14.80;99.90;;;;;;5019689;28;95677;-80
2023/01/01 06:01:09;;;;;;;4.38;1.70;;;14.70;99.90;;;;;;5020049;28;92670;-79
2023/01/01 06:03:36;;;;;;;4.13;2.00;;;14.70;99.90;;;;;;5019610;28;92494;-79
2023/01/01 06:06:12;;;;;;;3.47;1.73;;;14.70;99.90;;;;;;5036365;28;97938;-79
2023/01/01 06:08:40;;;;;;;2.05;1.85;;;14.70;99.90;;;;;;5038199;28;92981;-79
2023/01/01 06:11:10;;;;;;;6.88;2.50;;;14.60;99.90;;;;;;5038297;28;93133;-79
2023/01/01 06:13:38;;;;;;;4.20;1.80;;;14.60;99.90;;;;;;5019524;28;93022;-80
2023/01/01 06:16:05;;;;;;;3.75;1.80;;;14.60;99.90;;;;;;5036575;28;95742;-79
2023/01/01 06:18:33;;;;;;;4.47;1.80;;;14.60;99.90;;;;;;5019354;28;98091;-79
2023/01/01 06:21:05;;;;;;;4.15;1.50;;;14.50;99.90;;;;;;5019709;28;92496;-79
2023/01/01 06:23:33;;;;;;;5.15;2.13;;;14.50;99.90;;;;;;5019865;28;92532;-79
2023/01/01 06:26:04;;;;;;;2.83;1.58;;;14.50;99.90;;;;;;5036344;28;93427;-79
2023/01/01 06:28:31;;;;;;;2.95;1.23;;;14.50;99.90;;;;;;5037640;28;93146;-79
2023/01/01 06:31:00;;;;;;;4.40;1.90;;;14.40;99.90;;;;;;5019818;28;92543;-79
2023/01/01 06:33:28;;;;;;;3.20;1.58;;;14.40;99.90;;;;;;5020348;28;91784;-78
2023/01/01 06:35:55;;;;;;;4.38;1.40;;;14.40;99.90;;;;;;5019615;28;94093;-79
2023/01/01 06:38:22;;;;;;;3.90;1.80;;;14.40;99.90;;;;;;5019162;28;95761;-78
2023/01/01 06:40:58;;;;;;;3.17;1.42;;;14.40;99.90;;;;;;5001515;28;94906;-79
2023/01/01 06:43:25;;;;;;;3.58;1.23;;;14.40;99.90;;;;;;5019199;28;92458;-79
2023/01/01 06:46:04;;;;;;;3.63;1.30;;;14.40;99.90;;;;;;5018976;28;94757;-79
2023/01/01 06:48:34;;;;;;;4.15;1.50;;;14.40;99.90;;;;;;5037695;28;93357;-80
2023/01/01 06:51:09;;;;;;;5.80;1.58;;;14.30;99.90;;;;;;5037271;28;92392;-79
2023/01/01 06:53:37;;;;;;;3.15;1.50;;;14.40;99.90;;;;;;5002526;28;92411;-79
2023/01/01 06:56:04;;;;;;;4.22;1.73;;;14.30;99.90;;;;;;5018866;28;97785;-79
2023/01/01 06:58:32;;;;;;;4.75;1.60;;;14.30;99.90;;;;;;5037636;28;93062;-79
2023/01/01 07:01:08;;;;;;;6.93;1.58;;;14.30;99.90;;;;;;5002898;28;92505;-79
2023/01/01 07:03:36;;;;;;;4.68;1.60;;;14.40;99.90;;;;;;5019252;28;92422;-80
2023/01/01 07:06:04;;;;;;;5.60;1.58;;;14.30;99.90;;;;;;5001401;28;98050;-79
2023/01/01 07:08:32;;;;;;;4.25;1.60;;;14.30;99.90;;;;;;5036846;28;95372;-79
2023/01/01 07:10:59;;;;;;;3.40;1.35;;;14.30;99.90;;;;;;5018893;28;92442;-79
2023/01/01 07:13:28;;;;;;;3.13;1.40;;;14.30;99.90;;;;;;5037104;28;92898;-80
2023/01/01 07:15:55;;;;;;;4.93;1.52;;;14.30;99.90;;;;;;5018341;28;94602;-79
2023/01/01 07:18:23;;;;;;;7.18;1.67;;;14.30;99.90;;;;;;5002144;28;95933;-79
2023/01/01 07:20:52;;;;;;;5.50;1.40;;;14.20;99.90;;;;;;5018633;28;92447;-79
2023/01/01 07:23:20;;;;;;;5.50;1.85;;;14.20;99.90;;;;;;5002905;28;91815;-80
2023/01/01 07:25:51;;;;;;;6.70;1.60;;;14.20;99.90;;;;;;5036552;28;93262;-79
2023/01/01 07:28:19;;;;;;;10.05;2.00;;;14.20;99.90;;;;;;5018878;28;92441;-79
2023/01/01 07:30:46;;;;;;;6.13;1.67;;;14.20;99.90;;;;;;5000736;28;94870;-79
2023/01/01 07:33:18;;;;;;;6.32;1.90;;;14.20;99.90;;;;;;5018994;28;92619;-79
2023/01/01 07:35:46;;;;;;;4.05;1.63;;;14.20;99.90;;;;;;5017844;28;95837;-79
2023/01/01 07:38:14;;;;;;;7.35;1.70;;;14.20;99.90;;;;;;5036902;28;93347;-79
2023/01/01 07:40:42;;;;;;;5.43;1.70;;;14.10;99.90;;;;;;5018354;28;92415;-79
2023/01/01 07:43:11;;;;;;;6.28;1.83;;;14.10;99.90;;;;;;5018573;28;92582;-79
2023/01/01 07:45:38;;;;;;;4.57;1.60;;;14.10;99.90;;;;;;5018293;28;95742;-79
2023/01/01 07:48:08;;;;;;;7.78;1.77;;;14.10;99.90;;;;;;5002162;28;94183;-79
2023/01/01 07:50:37;;;;;;;5.95;2.25;;;14.10;99.90;;;;;;5018518;28;93197;-79
2023/01/01 07:53:04;;;;;;;5.82;2.63;;;14.10;99.90;;;;;;5018767;28;92911;-79
2023/01/01 07:55:33;;;;;;;7.10;2.17;;;14.10;99.90;;;;;;5016965;28;98296;-79
2023/01/01 07:58:00;;;;;;;6.55;1.80;;;14.10;99.90;;;;;;5017984;28;95279;-79
2023/01/01 08:00:27;;;;;;;8.35;2.22;;;14.10;99.90;;;;;;5036610;28;92488;-79
2023/01/01 08:02:55;;;;;;;6.10;1.80;;;14.00;99.90;;;;;;5018007;28;92543;-79
2023/01/01 08:05:22;;;;;;;6.40;1.90;;;14.00;99.90;;;;;;5001140;28;94716;-79
2023/01/01 08:07:52;;;;;;;5.18;1.65;;;14.00;99.90;;;;;;5018642;28;95787;-79
2023/01/01 08:10:20;;;;;;;7.63;1.80;;;14.00;99.90;;;;;;5036256;28;93049;-79
2023/01/01 08:12:47;;;;;;;8.63;1.83;;;14.00;99.90;;;;;;5036156;28;91779;-79
2023/01/01 08:15:15;;;;;;;8.40;1.50;;;13.90;99.90;;;;;;5035745;28;93517;-79
2023/01/01 08:17:42;;;;;;;4.18;1.60;;;13.90;99.90;;;;;;5036031;28;92465;-79
2023/01/01 08:20:13;;;;;;;8.48;1.95;;;13.90;99.90;;;;;;5017650;28;95337;-79
2023/01/01 08:22:40;;;;;;;5.18;1.77;;;13.90;99.90;;;;;;5018322;28;92442;-79
2023/01/01 08:25:08;;;;;;;8.05;1.70;;;13.90;99.90;;;;;;5017197;28;95700;-80
2023/01/01 08:27:35;;;;;;;7.50;1.67;;;13.90;99.90;;;;;;5035952;28;93197;-80
2023/01/01 08:30:02;;;;;;;7.93;2.08;;;13.90;99.90;;;;;;5017920;28;92543;-79
2023/01/01 08:32:29;;;;;;;6.93;1.73;;;13.90;99.90;;;;;;5018002;28;92526;-79
2023/01/01 08:34:56;;;;;;;5.65;1.70;;;13.90;99.90;;;;;;5001035;28;93262;-79
2023/01/01 08:37:24;;;;;;;6.97;2.03;;;13.90;99.90;;;;;;5018204;28;92873;-80
2023/01/01 08:39:52;;;;;;;5.97;1.80;;;13.90;99.90;;;;;;5035346;28;92405;-79
2023/01/01 08:42:19;;;;;;;10.00;1.63;;;13.90;99.90;;;;;;5035488;28;92608;-80
2023/01/01 08:44:46;;;;;;;8.15;1.85;;;13.90;99.90;;;;;;5016083;28;98188;-80
2023/01/01 08:47:18;;;;;;;5.32;2.13;;;13.90;99.90;;;;;;5000964;28;98401;-79
2023/01/01 08:49:46;;;;;;;9.80;1.80;;;13.90;99.90;;;;;;5020398;28;93330;-80
2023/01/01 08:52:14;;;;;;;8.10;1.90;;;13.90;99.90;;;;;;5039158;28;92544;-81
2023/01/01 08:54:41;;;;;;;7.07;1.77;;;13.80;99.90;;;;;;5020509;28;95388;-80
2023/01/01 08:57:08;;;;;;;6.68;1.92;;;13.80;99.90;;;;;;5020924;28;93186;-79
2023/01/01 08:59:35;;;;;;;5.88;1.80;;;13.80;99.90;;;;;;5020907;28;92476;-79
2023/01/01 09:02:03;;;;;;;8.80;2.25;;;13.80;99.90;;;;;;5021522;28;91690;-79
2023/01/01 09:04:30;;;;;;;8.25;2.05;;;13.80;99.90;;;;;;5038873;28;93283;-79
2023/01/01 09:06:57;;;;;;;8.23;1.98;;;13.80;99.90;;;;;;5038717;28;93169;-80
2023/01/01 09:09:24;;;;;;;7.65;2.35;;;13.80;99.90;;;;;;5003161;28;94982;-79
2023/01/01 09:12:02;;;;;;;7.53;2.33;;;13.80;99.90;;;;;;5021256;28;92423;-79
2023/01/01 09:14:30;;;;;;;5.78;1.77;;;13.80;99.90;;;;;;5022036;28;93429;-79
2023/01/01 09:16:57;;;;;;;5.82;2.20;;;13.80;99.90;;;;;;5020558;28;93009;-80
2023/01/01 09:19:24;;;;;;;7.20;2.00;;;13.90;99.90;;;;;;5021385;28;92411;-79
2023/01/01 09:21:52;;;;;;;8.70;2.20;;;13.90;99.90;;;;;;5004365;28;92587;-79
2023/01/01 09:24:19;;;;;;;7.93;1.88;;;13.90;99.90;;;;;;5020532;28;96000;-80
2023/01/01 09:26:46;;;;;;;9.52;2.40;;;14.00;99.90;;;;;;5020615;28;101669;-80
2023/01/01 09:29:17;;;;;;;9.88;2.25;;;13.90;99.90;;;;;;5038594;28;92401;-80
2023/01/01 09:31:44;;;;;;;8.40;2.03;;;14.00;99.90;;;;;;5021399;28;92525;-79
2023/01/01 09:34:12;;;;;;;9.55;1.95;;;14.00;99.90;;;;;;5019479;28;95681;-79
2023/01/01 09:36:39;;;;;;;9.20;1.80;;;14.10;99.90;;;;;;5019905;28;98275;-80
2023/01/01 09:39:06;;;;;;;11.60;1.85;;;14.10;99.90;;;;;;5020517;28;92638;-80
2023/01/01 09:42:00;;;;;;;9.32;2.05;;;14.10;99.90;;;;;;4987417;28;92526;-80
2023/01/01 09:44:36;;;;;;;12.18;2.05;;;14.20;99.90;;;;;;5020363;28;93699;-79
2023/01/01 09:47:12;;;;;;;11.05;2.42;;;14.10;99.90;;;;;;5020180;28;93534;-79
2023/01/01 09:49:45;;;;;;;9.73;2.00;;;14.20;99.90;;;;;;5020374;28;92514;-79
2023/01/01 09:52:14;;;;;;;8.60;2.55;;;14.20;99.90;;;;;;5020937;28;91781;-79
2023/01/01 09:54:54;;;;;;;7.57;1.77;;;14.20;99.90;;;;;;5020136;28;93210;-79
2023/01/01 09:57:27;;;;;;;6.57;2.22;;;14.30;99.90;;;;;;5037875;28;92776;-80
2023/01/01 09:59:55;;;;;;;7.72;2.08;;;14.30;99.90;;;;;;5018774;28;94891;-79
2023/01/01 10:02:57;;;;;;;8.63;2.38;;;14.30;99.90;;;;;;5003104;28;92550;-80
2023/01/01 10:05:59;;;;;;;11.90;2.20;;;14.30;99.90;;;;;;4952088;28;96473;-80
2023/01/01 10:08:32;;;;;;;8.73;2.63;;;14.30;99.90;;;;;;5038518;28;93031;-80
2023/01/01 10:11:37;;;;;;;7.88;1.60;;;14.20;99.90;;;;;;5019940;28;92451;-80
2023/01/01 10:14:28;;;;;;;11.05;2.60;;;14.30;99.90;;;;;;4972300;28;92585;-80
2023/01/01 10:16:57;;;;;;;10.77;1.67;;;14.30;99.90;;;;;;5016445;28;96072;-79
2023/01/01 10:19:37;;;;;;;8.07;2.10;;;14.20;99.90;;;;;;5016561;28;95179;-80
2023/01/01 10:22:14;;;;;;;6.53;1.75;;;14.30;99.90;;;;;;5016697;28;92470;-79
2023/01/01 10:24:48;;;;;;;11.35;2.25;;;14.10;99.90;;;;;;5016288;28;92956;-79
2023/01/01 10:27:27;;;;;;;8.77;2.30;;;14.10;99.90;;;;;;5015028;28;98178;-80
2023/01/01 10:29:56;;;;;;;7.60;1.95;;;14.10;99.90;;;;;;4999600;28;98854;-80
2023/01/01 10:32:34;;;;;;;8.30;2.15;;;14.00;99.90;;;;;;5016395;28;92533;-80
2023/01/01 10:35:11;;;;;;;8.15;1.75;;;14.00;99.90;;;;;;5018013;28;92495;-79
2023/01/01 10:37:39;;;;;;;8.40;1.95;;;14.00;99.90;;;;;;5016254;28;93329;-79
2023/01/01 10:40:16;;;;;;;10.13;1.98;;;13.90;99.90;;;;;;4999434;28;95962;-79
2023/01/01 10:42:49;;;;;;;7.45;1.90;;;14.10;99.90;;;;;;5017786;28;92640;-80
2023/01/01 10:45:29;;;;;;;6.43;1.77;;;14.00;99.90;;;;;;5017322;28;91713;-79
2023/01/01 10:48:15;;;;;;;8.50;1.83;;;14.10;99.90;;;;;;5016188;28;94781;-79
2023/01/01 10:50:41;;;;;;;8.43;1.63;;;14.10;99.90;;;;;;5015926;28;94167;-80
2023/01/01 10:53:25;;;;;;;16.35;2.10;;;14.10;99.90;;;;;;5016118;28;94837;-79
2023/01/01 10:56:05;;;;;;;8.60;2.30;;;14.30;99.90;;;;;;5016226;28;92544;-79
2023/01/01 10:58:47;;;;;;;11.75;2.17;;;14.30;99.90;;;;;;5017310;28;93169;-80
2023/01/01 11:01:17;;;;;;;9.90;1.70;;;14.20;99.90;;;;;;5017171;28;93118;-80
2023/01/01 11:04:06;;;;;;;7.22;2.25;;;14.20;99.90;;;;;;5015884;28;92950;-80
2023/01/01 11:06:51;;;;;;;4.43;1.85;;;14.40;99.90;;;;;;5015724;28;92460;-79
2023/01/01 11:09:26;;;;;;;12.38;2.25;;;14.40;99.90;;;;;;5015975;28;93395;-80
2023/01/01 11:11:58;;;;;;;9.80;1.90;;;14.30;99.90;;;;;;5015317;28;91940;-79
2023/01/01 11:14:55;;;;;;;9.55;1.73;;;14.40;99.90;;;;;;5017059;28;92357;-79
2023/01/01 11:17:26;;;;;;;8.93;1.90;;;14.50;99.90;;;;;;5015777;28;92492;-79
2023/01/01 11:19:54;;;;;;;9.30;1.92;;;14.50;99.90;;;;;;5014200;28;97076;-80
2023/01/01 11:22:35;;;;;;;;;;;14.50;99.90;;;;;;5017144;28;95624;-79
2023/01/01 11:25:10;;;;;;;10.13;1.75;;;14.40;99.90;;;;;;5000036;28;92341;-79
2023/01/01 11:27:37;;;;;;;10.20;2.10;;;14.40;99.90;;;;;;5015602;28;92518;-79
2023/01/01 11:30:25;;;;;;;9.40;1.65;;;14.50;99.90;;;;;;5015280;28;95625;-80
2023/01/01 11:33:02;;;;;;;6.13;1.48;;;14.60;99.90;;;;;;5015284;28;95877;-81
2023/01/01 11:35:32;;;;;;;8.48;2.13;;;14.60;99.90;;;;;;4998650;28;92509;-80
2023/01/01 11:37:59;;;;;;;8.25;1.75;;;14.50;99.90;;;;;;5017392;28;91970;-79
2023/01/01 11:40:35;;;;;;;9.70;2.13;;;14.60;99.90;;;;;;5014863;28;94706;-80
2023/01/01 11:43:05;;;;;;;11.43;2.03;;;14.50;99.90;;;;;;5016778;28;92509;-80
2023/01/01 11:45:39;;;;;;;12.45;2.45;;;14.50;99.90;;;;;;5015554;28;94910;-80
2023/01/01 11:48:26;;;;;;;9.43;2.28;;;14.50;99.90;;;;;;5014394;28;92464;-79
2023/01/01 11:51:15;;;;;;;8.23;1.85;;;14.60;99.90;;;;;;5015305;28;93277;-79
2023/01/01 11:53:42;;;;;;;10.35;2.08;;;14.60;99.90;;;;;;5014859;27;93053;-79
2023/01/01 11:56:20;;;;;;;8.38;2.00;;;14.70;99.90;;;;;;5016365;28;92444;-79
2023/01/01 11:58:52;;;;;;;9.48;2.17;;;14.80;99.90;;;;;;5015048;28;92493;-79
2023/01/01 12:01:39;;;;;;;12.68;2.30;;;14.80;99.90;;;;;;5014526;28;94501;-79
2023/01/01 12:04:39;;;;;;;10.98;2.58;;;14.90;99.90;;;;;;5015291;28;94399;-79
2023/01/01 12:07:14;;;;;;;7.90;2.10;;;14.90;99.90;;;;;;5015198;28;92575;-80
2023/01/01 12:10:08;;;;;;;10.30;2.22;;;14.90;99.90;;;;;;5015012;28;92493;-79
2023/01/01 12:12:41;;;;;;;;;;;14.90;99.90;;;;;;5013487;28;95706;-79
2023/01/01 12:15:19;;;;;;;10.00;2.05;;;14.80;99.90;;;;;;5015746;28;97902;-80
2023/01/01 12:18:13;;;;;;;10.65;2.30;;;14.80;99.90;;;;;;5016585;28;92378;-80
2023/01/01 12:21:02;;;;;;;14.23;2.72;;;14.90;99.90;;;;;;5016098;28;92345;-80
2023/01/01 12:23:31;;;;;;;8.50;1.83;;;14.90;99.90;;;;;;5013804;28;96313;-79
2023/01/01 12:26:08;;;;;;;11.50;2.40;;;14.80;99.90;;;;;;5014639;28;93168;-79
2023/01/01 12:28:37;;;;;;;8.80;2.47;;;14.90;99.90;;;;;;5014634;28;92850;-79
2023/01/01 12:31:28;;;;;;;12.50;2.38;;;14.80;99.90;;;;;;5016055;28;91732;-80
2023/01/01 12:34:07;;;;;;;10.50;1.95;;;14.80;99.90;;;;;;5014714;28;93310;-79
2023/01/01 12:36:52;;;;;;;9.90;1.88;;;14.70;99.90;;;;;;5014219;28;93029;-80
2023/01/01 12:39:56;;;;;;;10.75;3.10;;;14.70;99.90;;;;;;5013163;28;95017;-79
2023/01/01 12:42:23;;;;;;;;;;;14.70;99.90;;;;;;5016060;28;92453;-79
2023/01/01 12:45:15;;;;;;;16.58;6.22;;;14.60;99.90;;;;;;5015813;28;93545;-79
2023/01/01 12:47:47;;;;;;;10.00;3.90;;;14.70;99.90;;;;;;5015483;28;92988;-80
2023/01/01 12:50:35;;;;;;;10.63;2.85;;;14.70;99.90;;;;;;5015980;28;92380;-80
2023/01/01 12:53:26;;;;;;;8.65;2.65;;;14.70;99.90;;;;;;5015898;28;92485;-79
2023/01/01 12:56:10;;;;;;;11.52;2.40;;;14.60;99.90;;;;;;5015886;28;93364;-79
2023/01/01 12:59:05;;;;;;;12.57;3.00;;;14.60;99.90;;;;;;5015941;28;92810;-78
2023/01/01 13:01:34;;;;;;;8.77;2.35;;;14.50;99.90;;;;;;5015651;28;92353;-80
2023/01/01 13:04:06;;;;;;;9.15;1.95;;;14.40;99.90;;;;;;5015540;28;92561;-79
2023/01/01 13:06:51;;;;;;;11.10;2.30;;;14.40;99.90;;;;;;5012634;28;97870;-79
2023/01/01 13:09:21;;;;;;;8.48;2.35;;;14.40;99.90;;;;;;5013976;28;97972;-79
2023/01/01 13:11:58;;;;;;;9.82;2.67;;;14.30;99.90;;;;;;5015716;28;92825;-79
2023/01/01 13:14:26;;;;;;;12.77;2.80;;;14.30;99.90;;;;;;5034125;28;92520;-79